Mitcham, United Kingdom
Current Conditions -  °F | °C
As of 11:50 AM on Saturday 01 Nov 2014 (Local Time) from EGKB Reporting Station
Scattered Clouds Scattered Clouds  
Wind Chill: 59°   Ceiling: Unl
Heat Index: 59°   Visibility: 6mi
Dew Point: 52°   Wind: 10mph
Humidity: 77%   Direction: 220°SW
Pressure: 30"   Gusts: NA
Location:  51.41°N, 0.15°W
Report Text: EGKB 011150Z 22009KT 190V250 9999 SCT015 15/11 Q1016
Loading
Personal Weather Stations






























Interactive Weather Map
Tropical Storm Tracking
New forecast layout! Learn more

10-Day Weather Forecast

Advertisements
Track Severe Weather on mobile